sensor_id;sensor_type;location;lat;lon;timestamp;P1;durP1;ratioP1;P2;durP2;ratioP2
79130;SDS011;72396;45.194;9.142;2024-02-26T00:00:05;9.00;;;5.68;;
79130;SDS011;72396;45.194;9.142;2024-02-26T00:02:34;8.00;;;5.55;;
79130;SDS011;72396;45.194;9.142;2024-02-26T00:05:03;9.52;;;5.45;;
79130;SDS011;72396;45.194;9.142;2024-02-26T00:07:30;9.20;;;5.15;;
79130;SDS011;72396;45.194;9.142;2024-02-26T00:09:55;8.02;;;4.85;;
79130;SDS011;72396;45.194;9.142;2024-02-26T00:12:21;9.13;;;4.95;;
79130;SDS011;72396;45.194;9.142;2024-02-26T00:14:46;8.70;;;4.72;;
79130;SDS011;72396;45.194;9.142;2024-02-26T00:17:13;7.75;;;4.65;;
79130;SDS011;72396;45.194;9.142;2024-02-26T00:19:38;10.00;;;5.25;;
79130;SDS011;72396;45.194;9.142;2024-02-26T00:22:04;8.25;;;5.45;;
79130;SDS011;72396;45.194;9.142;2024-02-26T00:24:29;8.52;;;4.53;;
79130;SDS011;72396;45.194;9.142;2024-02-26T00:26:54;7.75;;;4.50;;
79130;SDS011;72396;45.194;9.142;2024-02-26T00:29:20;7.63;;;4.03;;
79130;SDS011;72396;45.194;9.142;2024-02-26T00:31:46;7.68;;;4.28;;
79130;SDS011;72396;45.194;9.142;2024-02-26T00:34:11;8.15;;;4.78;;
79130;SDS011;72396;45.194;9.142;2024-02-26T00:36:37;8.93;;;4.20;;
79130;SDS011;72396;45.194;9.142;2024-02-26T00:39:02;8.70;;;4.18;;
79130;SDS011;72396;45.194;9.142;2024-02-26T00:41:28;7.65;;;4.30;;
79130;SDS011;72396;45.194;9.142;2024-02-26T00:43:54;7.30;;;4.55;;
79130;SDS011;72396;45.194;9.142;2024-02-26T00:46:19;6.38;;;4.00;;
79130;SDS011;72396;45.194;9.142;2024-02-26T00:48:44;7.55;;;4.45;;
79130;SDS011;72396;45.194;9.142;2024-02-26T00:51:10;8.25;;;4.00;;
79130;SDS011;72396;45.194;9.142;2024-02-26T00:53:35;5.25;;;3.78;;
79130;SDS011;72396;45.194;9.142;2024-02-26T00:56:01;6.60;;;3.83;;
79130;SDS011;72396;45.194;9.142;2024-02-26T00:58:26;6.00;;;3.45;;
79130;SDS011;72396;45.194;9.142;2024-02-26T01:00:52;7.45;;;3.30;;
79130;SDS011;72396;45.194;9.142;2024-02-26T01:03:18;5.95;;;3.33;;
79130;SDS011;72396;45.194;9.142;2024-02-26T01:05:43;5.13;;;3.28;;
79130;SDS011;72396;45.194;9.142;2024-02-26T01:08:09;7.07;;;3.15;;
79130;SDS011;72396;45.194;9.142;2024-02-26T01:10:35;6.35;;;3.00;;
79130;SDS011;72396;45.194;9.142;2024-02-26T01:13:00;7.60;;;3.13;;
79130;SDS011;72396;45.194;9.142;2024-02-26T01:15:26;4.80;;;3.03;;
79130;SDS011;72396;45.194;9.142;2024-02-26T01:17:52;5.20;;;2.65;;
79130;SDS011;72396;45.194;9.142;2024-02-26T01:20:17;4.30;;;2.40;;
79130;SDS011;72396;45.194;9.142;2024-02-26T01:22:43;4.80;;;2.72;;
79130;SDS011;72396;45.194;9.142;2024-02-26T01:25:09;4.53;;;2.53;;
79130;SDS011;72396;45.194;9.142;2024-02-26T01:27:35;5.10;;;2.50;;
79130;SDS011;72396;45.194;9.142;2024-02-26T01:30:03;4.88;;;2.20;;
79130;SDS011;72396;45.194;9.142;2024-02-26T01:32:29;4.22;;;2.47;;
79130;SDS011;72396;45.194;9.142;2024-02-26T01:34:54;4.63;;;2.40;;
79130;SDS011;72396;45.194;9.142;2024-02-26T01:37:20;5.40;;;2.95;;
79130;SDS011;72396;45.194;9.142;2024-02-26T01:39:45;5.05;;;2.65;;
79130;SDS011;72396;45.194;9.142;2024-02-26T01:42:10;4.55;;;2.63;;
79130;SDS011;72396;45.194;9.142;2024-02-26T01:44:36;4.32;;;2.55;;
79130;SDS011;72396;45.194;9.142;2024-02-26T01:47:03;4.88;;;2.72;;
79130;SDS011;72396;45.194;9.142;2024-02-26T01:49:29;5.47;;;2.88;;
79130;SDS011;72396;45.194;9.142;2024-02-26T01:51:55;6.07;;;3.05;;
79130;SDS011;72396;45.194;9.142;2024-02-26T01:54:22;5.35;;;2.83;;
79130;SDS011;72396;45.194;9.142;2024-02-26T01:56:48;4.22;;;2.92;;
79130;SDS011;72396;45.194;9.142;2024-02-26T01:59:15;6.28;;;3.00;;
79130;SDS011;72396;45.194;9.142;2024-02-26T02:01:41;6.20;;;2.92;;
79130;SDS011;72396;45.194;9.142;2024-02-26T02:04:10;5.60;;;2.75;;
79130;SDS011;72396;45.194;9.142;2024-02-26T02:06:36;4.00;;;2.33;;
79130;SDS011;72396;45.194;9.142;2024-02-26T02:09:03;6.20;;;2.95;;
79130;SDS011;72396;45.194;9.142;2024-02-26T02:11:32;5.20;;;3.03;;
79130;SDS011;72396;45.194;9.142;2024-02-26T02:13:58;5.68;;;2.95;;
79130;SDS011;72396;45.194;9.142;2024-02-26T02:16:24;6.88;;;3.15;;
79130;SDS011;72396;45.194;9.142;2024-02-26T02:18:50;4.63;;;2.80;;
79130;SDS011;72396;45.194;9.142;2024-02-26T02:21:15;4.75;;;2.92;;
79130;SDS011;72396;45.194;9.142;2024-02-26T02:23:40;5.68;;;2.90;;
79130;SDS011;72396;45.194;9.142;2024-02-26T02:26:11;5.90;;;3.08;;
79130;SDS011;72396;45.194;9.142;2024-02-26T02:28:37;9.98;;;3.88;;
79130;SDS011;72396;45.194;9.142;2024-02-26T02:31:02;6.18;;;3.72;;
79130;SDS011;72396;45.194;9.142;2024-02-26T02:33:28;5.35;;;3.47;;
79130;SDS011;72396;45.194;9.142;2024-02-26T02:35:54;6.25;;;3.92;;
79130;SDS011;72396;45.194;9.142;2024-02-26T02:38:20;6.63;;;3.83;;
79130;SDS011;72396;45.194;9.142;2024-02-26T02:40:46;6.63;;;4.10;;
79130;SDS011;72396;45.194;9.142;2024-02-26T02:43:11;7.88;;;3.97;;
79130;SDS011;72396;45.194;9.142;2024-02-26T02:45:36;7.07;;;4.55;;
79130;SDS011;72396;45.194;9.142;2024-02-26T02:48:02;6.68;;;4.70;;
79130;SDS011;72396;45.194;9.142;2024-02-26T02:50:27;8.45;;;5.00;;
79130;SDS011;72396;45.194;9.142;2024-02-26T02:52:54;6.60;;;4.38;;
79130;SDS011;72396;45.194;9.142;2024-02-26T02:55:19;8.95;;;5.22;;
79130;SDS011;72396;45.194;9.142;2024-02-26T02:57:45;8.20;;;4.90;;
79130;SDS011;72396;45.194;9.142;2024-02-26T03:00:10;11.52;;;5.97;;
79130;SDS011;72396;45.194;9.142;2024-02-26T03:02:36;9.57;;;5.32;;
79130;SDS011;72396;45.194;9.142;2024-02-26T03:05:03;10.00;;;6.43;;
79130;SDS011;72396;45.194;9.142;2024-02-26T03:07:28;10.45;;;6.70;;
79130;SDS011;72396;45.194;9.142;2024-02-26T03:09:54;9.50;;;6.32;;
79130;SDS011;72396;45.194;9.142;2024-02-26T03:12:19;11.38;;;6.45;;
79130;SDS011;72396;45.194;9.142;2024-02-26T03:14:45;11.07;;;6.68;;
79130;SDS011;72396;45.194;9.142;2024-02-26T03:17:10;10.43;;;6.85;;
79130;SDS011;72396;45.194;9.142;2024-02-26T03:19:35;12.27;;;6.97;;
79130;SDS011;72396;45.194;9.142;2024-02-26T03:22:01;10.80;;;6.78;;
79130;SDS011;72396;45.194;9.142;2024-02-26T03:24:27;9.85;;;6.45;;
79130;SDS011;72396;45.194;9.142;2024-02-26T03:26:52;10.45;;;6.25;;
79130;SDS011;72396;45.194;9.142;2024-02-26T03:29:18;10.55;;;7.65;;
79130;SDS011;72396;45.194;9.142;2024-02-26T03:31:43;11.38;;;6.75;;
79130;SDS011;72396;45.194;9.142;2024-02-26T03:34:08;11.18;;;6.82;;
79130;SDS011;72396;45.194;9.142;2024-02-26T03:36:34;9.65;;;7.10;;
79130;SDS011;72396;45.194;9.142;2024-02-26T03:38:59;11.73;;;6.63;;
79130;SDS011;72396;45.194;9.142;2024-02-26T03:41:24;10.75;;;7.50;;
79130;SDS011;72396;45.194;9.142;2024-02-26T03:43:50;13.13;;;7.97;;
79130;SDS011;72396;45.194;9.142;2024-02-26T03:46:15;13.48;;;7.38;;
79130;SDS011;72396;45.194;9.142;2024-02-26T03:48:41;11.13;;;7.57;;
79130;SDS011;72396;45.194;9.142;2024-02-26T03:51:08;14.27;;;7.75;;
79130;SDS011;72396;45.194;9.142;2024-02-26T03:53:34;12.40;;;7.20;;
79130;SDS011;72396;45.194;9.142;2024-02-26T03:56:02;12.00;;;8.80;;
79130;SDS011;72396;45.194;9.142;2024-02-26T03:58:28;12.88;;;8.93;;
79130;SDS011;72396;45.194;9.142;2024-02-26T04:00:54;12.93;;;8.07;;
79130;SDS011;72396;45.194;9.142;2024-02-26T04:03:19;14.15;;;8.20;;
79130;SDS011;72396;45.194;9.142;2024-02-26T04:05:44;13.85;;;8.20;;
79130;SDS011;72396;45.194;9.142;2024-02-26T04:08:10;11.48;;;7.63;;
79130;SDS011;72396;45.194;9.142;2024-02-26T04:10:36;10.35;;;7.65;;
79130;SDS011;72396;45.194;9.142;2024-02-26T04:13:03;13.80;;;8.25;;
79130;SDS011;72396;45.194;9.142;2024-02-26T04:15:29;12.02;;;8.23;;
79130;SDS011;72396;45.194;9.142;2024-02-26T04:17:55;14.02;;;8.02;;
79130;SDS011;72396;45.194;9.142;2024-02-26T04:20:20;11.30;;;8.48;;
79130;SDS011;72396;45.194;9.142;2024-02-26T04:22:46;12.20;;;7.93;;
79130;SDS011;72396;45.194;9.142;2024-02-26T04:25:11;13.75;;;8.88;;
79130;SDS011;72396;45.194;9.142;2024-02-26T04:27:37;15.80;;;8.40;;
79130;SDS011;72396;45.194;9.142;2024-02-26T04:30:03;14.10;;;8.55;;
79130;SDS011;72396;45.194;9.142;2024-02-26T04:32:30;13.65;;;9.02;;
79130;SDS011;72396;45.194;9.142;2024-02-26T04:34:55;14.18;;;8.93;;
79130;SDS011;72396;45.194;9.142;2024-02-26T04:37:20;13.27;;;8.77;;
79130;SDS011;72396;45.194;9.142;2024-02-26T04:39:46;16.90;;;9.70;;
79130;SDS011;72396;45.194;9.142;2024-02-26T04:42:11;14.80;;;8.63;;
79130;SDS011;72396;45.194;9.142;2024-02-26T04:44:37;12.15;;;7.70;;
79130;SDS011;72396;45.194;9.142;2024-02-26T04:47:02;13.18;;;8.43;;
79130;SDS011;72396;45.194;9.142;2024-02-26T04:49:28;16.35;;;8.48;;
79130;SDS011;72396;45.194;9.142;2024-02-26T04:51:53;16.77;;;8.57;;
79130;SDS011;72396;45.194;9.142;2024-02-26T04:54:19;12.68;;;8.68;;
79130;SDS011;72396;45.194;9.142;2024-02-26T04:56:44;13.82;;;8.82;;
79130;SDS011;72396;45.194;9.142;2024-02-26T04:59:10;13.07;;;8.75;;
79130;SDS011;72396;45.194;9.142;2024-02-26T05:01:35;13.13;;;8.18;;
79130;SDS011;72396;45.194;9.142;2024-02-26T05:04:01;14.82;;;8.00;;
79130;SDS011;72396;45.194;9.142;2024-02-26T05:06:28;13.70;;;8.55;;
79130;SDS011;72396;45.194;9.142;2024-02-26T05:08:55;11.38;;;7.57;;
79130;SDS011;72396;45.194;9.142;2024-02-26T05:11:20;13.80;;;8.50;;
79130;SDS011;72396;45.194;9.142;2024-02-26T05:13:47;13.43;;;8.00;;
79130;SDS011;72396;45.194;9.142;2024-02-26T05:16:13;14.82;;;8.88;;
79130;SDS011;72396;45.194;9.142;2024-02-26T05:18:38;15.07;;;7.57;;
79130;SDS011;72396;45.194;9.142;2024-02-26T05:21:03;13.93;;;7.82;;
79130;SDS011;72396;45.194;9.142;2024-02-26T05:23:29;14.93;;;7.60;;
79130;SDS011;72396;45.194;9.142;2024-02-26T05:25:54;11.75;;;7.70;;
79130;SDS011;72396;45.194;9.142;2024-02-26T05:28:20;10.95;;;7.30;;
79130;SDS011;72396;45.194;9.142;2024-02-26T05:30:45;11.18;;;7.93;;
79130;SDS011;72396;45.194;9.142;2024-02-26T05:33:11;10.40;;;6.43;;
79130;SDS011;72396;45.194;9.142;2024-02-26T05:35:37;10.02;;;5.95;;
79130;SDS011;72396;45.194;9.142;2024-02-26T05:38:03;13.15;;;6.47;;
79130;SDS011;72396;45.194;9.142;2024-02-26T05:40:28;8.70;;;6.35;;
79130;SDS011;72396;45.194;9.142;2024-02-26T05:42:55;10.48;;;6.15;;
79130;SDS011;72396;45.194;9.142;2024-02-26T05:45:20;11.15;;;7.00;;
79130;SDS011;72396;45.194;9.142;2024-02-26T05:47:47;11.85;;;6.25;;
79130;SDS011;72396;45.194;9.142;2024-02-26T05:50:12;9.23;;;6.28;;
79130;SDS011;72396;45.194;9.142;2024-02-26T05:52:38;10.65;;;6.10;;
79130;SDS011;72396;45.194;9.142;2024-02-26T05:55:04;9.55;;;5.78;;
79130;SDS011;72396;45.194;9.142;2024-02-26T05:57:30;9.63;;;5.88;;
79130;SDS011;72396;45.194;9.142;2024-02-26T05:59:56;10.30;;;6.20;;
79130;SDS011;72396;45.194;9.142;2024-02-26T06:02:22;8.38;;;5.20;;
79130;SDS011;72396;45.194;9.142;2024-02-26T06:04:47;9.70;;;6.40;;
79130;SDS011;72396;45.194;9.142;2024-02-26T06:07:13;10.80;;;6.18;;
79130;SDS011;72396;45.194;9.142;2024-02-26T06:09:38;10.18;;;6.00;;
79130;SDS011;72396;45.194;9.142;2024-02-26T06:12:04;8.90;;;5.50;;
79130;SDS011;72396;45.194;9.142;2024-02-26T06:14:30;8.73;;;5.32;;
79130;SDS011;72396;45.194;9.142;2024-02-26T06:16:55;9.10;;;5.80;;
79130;SDS011;72396;45.194;9.142;2024-02-26T06:19:20;9.55;;;6.05;;
79130;SDS011;72396;45.194;9.142;2024-02-26T06:21:46;10.35;;;6.00;;
79130;SDS011;72396;45.194;9.142;2024-02-26T06:24:11;9.68;;;6.40;;
79130;SDS011;72396;45.194;9.142;2024-02-26T06:26:36;12.70;;;6.50;;
79130;SDS011;72396;45.194;9.142;2024-02-26T06:29:02;8.55;;;5.43;;
79130;SDS011;72396;45.194;9.142;2024-02-26T06:31:27;9.05;;;5.75;;
79130;SDS011;72396;45.194;9.142;2024-02-26T06:33:53;11.27;;;6.15;;
79130;SDS011;72396;45.194;9.142;2024-02-26T06:36:19;9.05;;;5.82;;
79130;SDS011;72396;45.194;9.142;2024-02-26T06:38:44;11.48;;;5.97;;
79130;SDS011;72396;45.194;9.142;2024-02-26T06:41:09;8.13;;;5.13;;
79130;SDS011;72396;45.194;9.142;2024-02-26T06:43:36;12.90;;;5.40;;
79130;SDS011;72396;45.194;9.142;2024-02-26T06:46:01;8.02;;;5.10;;
79130;SDS011;72396;45.194;9.142;2024-02-26T06:48:27;8.65;;;5.25;;
79130;SDS011;72396;45.194;9.142;2024-02-26T06:50:52;6.78;;;4.63;;
79130;SDS011;72396;45.194;9.142;2024-02-26T06:53:18;8.18;;;4.63;;
79130;SDS011;72396;45.194;9.142;2024-02-26T06:55:43;9.30;;;4.50;;
79130;SDS011;72396;45.194;9.142;2024-02-26T06:58:09;7.95;;;4.18;;
79130;SDS011;72396;45.194;9.142;2024-02-26T07:00:34;11.55;;;4.47;;
79130;SDS011;72396;45.194;9.142;2024-02-26T07:03:00;6.93;;;4.15;;
79130;SDS011;72396;45.194;9.142;2024-02-26T07:05:26;7.40;;;4.43;;
79130;SDS011;72396;45.194;9.142;2024-02-26T07:07:52;6.45;;;4.10;;
79130;SDS011;72396;45.194;9.142;2024-02-26T07:10:17;7.63;;;4.13;;
79130;SDS011;72396;45.194;9.142;2024-02-26T07:12:43;5.45;;;3.60;;
79130;SDS011;72396;45.194;9.142;2024-02-26T07:15:09;7.45;;;3.53;;
79130;SDS011;72396;45.194;9.142;2024-02-26T07:17:35;6.30;;;3.97;;
79130;SDS011;72396;45.194;9.142;2024-02-26T07:20:00;7.55;;;3.83;;
79130;SDS011;72396;45.194;9.142;2024-02-26T07:22:25;6.22;;;3.80;;
79130;SDS011;72396;45.194;9.142;2024-02-26T07:24:51;6.72;;;3.60;;
79130;SDS011;72396;45.194;9.142;2024-02-26T07:27:16;6.10;;;3.00;;
79130;SDS011;72396;45.194;9.142;2024-02-26T07:29:43;6.82;;;3.60;;
79130;SDS011;72396;45.194;9.142;2024-02-26T07:32:08;6.80;;;3.25;;
79130;SDS011;72396;45.194;9.142;2024-02-26T07:34:34;4.47;;;2.70;;
79130;SDS011;72396;45.194;9.142;2024-02-26T07:37:00;4.88;;;2.78;;
79130;SDS011;72396;45.194;9.142;2024-02-26T07:39:25;6.22;;;2.30;;
79130;SDS011;72396;45.194;9.142;2024-02-26T07:41:51;4.55;;;2.22;;
79130;SDS011;72396;45.194;9.142;2024-02-26T07:44:18;5.85;;;2.75;;
79130;SDS011;72396;45.194;9.142;2024-02-26T07:46:43;3.85;;;2.28;;
79130;SDS011;72396;45.194;9.142;2024-02-26T07:49:09;5.13;;;2.60;;
79130;SDS011;72396;45.194;9.142;2024-02-26T07:51:34;5.43;;;2.65;;
79130;SDS011;72396;45.194;9.142;2024-02-26T07:54:00;5.95;;;2.72;;
79130;SDS011;72396;45.194;9.142;2024-02-26T07:56:26;4.88;;;2.83;;
79130;SDS011;72396;45.194;9.142;2024-02-26T07:58:51;5.88;;;2.92;;
79130;SDS011;72396;45.194;9.142;2024-02-26T08:01:16;7.50;;;3.40;;
79130;SDS011;72396;45.194;9.142;2024-02-26T08:03:42;6.57;;;4.32;;
79130;SDS011;72396;45.194;9.142;2024-02-26T08:06:10;6.25;;;3.58;;
79130;SDS011;72396;45.194;9.142;2024-02-26T08:08:35;6.75;;;4.22;;
79130;SDS011;72396;45.194;9.142;2024-02-26T08:11:01;6.53;;;3.50;;
79130;SDS011;72396;45.194;9.142;2024-02-26T08:13:26;6.75;;;3.50;;
79130;SDS011;72396;45.194;9.142;2024-02-26T08:15:52;5.95;;;3.35;;
79130;SDS011;72396;45.194;9.142;2024-02-26T08:18:17;5.45;;;3.10;;
79130;SDS011;72396;45.194;9.142;2024-02-26T08:20:44;5.50;;;2.88;;
79130;SDS011;72396;45.194;9.142;2024-02-26T08:23:09;5.68;;;3.22;;
79130;SDS011;72396;45.194;9.142;2024-02-26T08:25:35;6.10;;;3.22;;
79130;SDS011;72396;45.194;9.142;2024-02-26T08:28:00;5.00;;;3.38;;
79130;SDS011;72396;45.194;9.142;2024-02-26T08:30:25;5.95;;;3.55;;
79130;SDS011;72396;45.194;9.142;2024-02-26T08:32:51;5.20;;;3.30;;
79130;SDS011;72396;45.194;9.142;2024-02-26T08:35:17;5.32;;;3.25;;
79130;SDS011;72396;45.194;9.142;2024-02-26T08:37:46;8.60;;;3.80;;
79130;SDS011;72396;45.194;9.142;2024-02-26T08:40:12;7.93;;;3.88;;
79130;SDS011;72396;45.194;9.142;2024-02-26T08:42:38;6.03;;;3.97;;
79130;SDS011;72396;45.194;9.142;2024-02-26T08:45:04;6.30;;;3.97;;
79130;SDS011;72396;45.194;9.142;2024-02-26T08:47:30;10.48;;;4.35;;
79130;SDS011;72396;45.194;9.142;2024-02-26T08:49:55;7.43;;;4.38;;
79130;SDS011;72396;45.194;9.142;2024-02-26T08:52:21;10.05;;;4.60;;
79130;SDS011;72396;45.194;9.142;2024-02-26T08:54:49;8.55;;;4.40;;
79130;SDS011;72396;45.194;9.142;2024-02-26T08:57:14;5.85;;;4.10;;
79130;SDS011;72396;45.194;9.142;2024-02-26T08:59:40;7.38;;;4.68;;
79130;SDS011;72396;45.194;9.142;2024-02-26T09:02:05;7.43;;;4.55;;
79130;SDS011;72396;45.194;9.142;2024-02-26T09:04:30;7.20;;;4.28;;
79130;SDS011;72396;45.194;9.142;2024-02-26T09:06:56;7.63;;;4.72;;
79130;SDS011;72396;45.194;9.142;2024-02-26T09:09:21;7.82;;;4.85;;
79130;SDS011;72396;45.194;9.142;2024-02-26T09:11:47;8.35;;;4.70;;
79130;SDS011;72396;45.194;9.142;2024-02-26T09:14:16;8.32;;;5.13;;
79130;SDS011;72396;45.194;9.142;2024-02-26T09:16:42;8.65;;;5.00;;
79130;SDS011;72396;45.194;9.142;2024-02-26T09:19:07;8.45;;;4.85;;
79130;SDS011;72396;45.194;9.142;2024-02-26T09:21:32;9.00;;;4.85;;
79130;SDS011;72396;45.194;9.142;2024-02-26T09:23:58;8.68;;;4.97;;
79130;SDS011;72396;45.194;9.142;2024-02-26T09:26:23;8.50;;;4.75;;
79130;SDS011;72396;45.194;9.142;2024-02-26T09:28:49;8.43;;;5.35;;
79130;SDS011;72396;45.194;9.142;2024-02-26T09:31:14;7.88;;;5.13;;
79130;SDS011;72396;45.194;9.142;2024-02-26T09:33:41;7.85;;;5.32;;
79130;SDS011;72396;45.194;9.142;2024-02-26T09:36:07;8.50;;;5.20;;
79130;SDS011;72396;45.194;9.142;2024-02-26T09:38:34;7.90;;;5.35;;
79130;SDS011;72396;45.194;9.142;2024-02-26T09:41:02;8.93;;;5.30;;
79130;SDS011;72396;45.194;9.142;2024-02-26T09:43:34;8.50;;;5.63;;
79130;SDS011;72396;45.194;9.142;2024-02-26T09:46:01;10.88;;;6.30;;
79130;SDS011;72396;45.194;9.142;2024-02-26T09:48:27;9.43;;;5.65;;
79130;SDS011;72396;45.194;9.142;2024-02-26T09:50:54;11.20;;;5.97;;
79130;SDS011;72396;45.194;9.142;2024-02-26T09:53:19;8.43;;;5.40;;
79130;SDS011;72396;45.194;9.142;2024-02-26T09:55:47;8.32;;;5.93;;
79130;SDS011;72396;45.194;9.142;2024-02-26T09:58:12;7.15;;;5.20;;
79130;SDS011;72396;45.194;9.142;2024-02-26T10:00:43;8.80;;;5.82;;
79130;SDS011;72396;45.194;9.142;2024-02-26T10:03:14;10.75;;;6.07;;
79130;SDS011;72396;45.194;9.142;2024-02-26T10:05:41;9.30;;;5.65;;
79130;SDS011;72396;45.194;9.142;2024-02-26T10:08:08;8.98;;;6.18;;
79130;SDS011;72396;45.194;9.142;2024-02-26T10:10:35;9.85;;;5.97;;
79130;SDS011;72396;45.194;9.142;2024-02-26T10:13:03;8.32;;;5.68;;
79130;SDS011;72396;45.194;9.142;2024-02-26T10:15:31;10.32;;;6.18;;
79130;SDS011;72396;45.194;9.142;2024-02-26T10:17:56;11.75;;;5.95;;
79130;SDS011;72396;45.194;9.142;2024-02-26T10:20:22;8.85;;;5.45;;
79130;SDS011;72396;45.194;9.142;2024-02-26T10:22:48;12.45;;;6.32;;
79130;SDS011;72396;45.194;9.142;2024-02-26T10:25:14;12.32;;;6.78;;
79130;SDS011;72396;45.194;9.142;2024-02-26T10:27:40;10.10;;;6.22;;
79130;SDS011;72396;45.194;9.142;2024-02-26T10:30:16;11.80;;;6.40;;
79130;SDS011;72396;45.194;9.142;2024-02-26T10:32:46;10.77;;;6.50;;
79130;SDS011;72396;45.194;9.142;2024-02-26T10:35:13;11.23;;;5.95;;
79130;SDS011;72396;45.194;9.142;2024-02-26T10:37:42;11.50;;;6.15;;
79130;SDS011;72396;45.194;9.142;2024-02-26T10:40:11;8.82;;;5.45;;
79130;SDS011;72396;45.194;9.142;2024-02-26T10:42:37;8.77;;;5.78;;
79130;SDS011;72396;45.194;9.142;2024-02-26T10:45:04;9.18;;;5.57;;
79130;SDS011;72396;45.194;9.142;2024-02-26T10:47:31;8.73;;;5.75;;
79130;SDS011;72396;45.194;9.142;2024-02-26T10:49:58;10.20;;;5.25;;
79130;SDS011;72396;45.194;9.142;2024-02-26T10:52:24;8.55;;;5.55;;
79130;SDS011;72396;45.194;9.142;2024-02-26T10:54:50;9.82;;;5.38;;
79130;SDS011;72396;45.194;9.142;2024-02-26T10:57:19;8.65;;;5.20;;
79130;SDS011;72396;45.194;9.142;2024-02-26T10:59:46;12.93;;;6.35;;
79130;SDS011;72396;45.194;9.142;2024-02-26T11:02:14;10.73;;;6.00;;
79130;SDS011;72396;45.194;9.142;2024-02-26T11:04:39;11.20;;;6.53;;
79130;SDS011;72396;45.194;9.142;2024-02-26T11:07:05;10.85;;;5.78;;
79130;SDS011;72396;45.194;9.142;2024-02-26T11:09:34;9.50;;;5.93;;
79130;SDS011;72396;45.194;9.142;2024-02-26T11:12:01;8.68;;;5.60;;
79130;SDS011;72396;45.194;9.142;2024-02-26T11:14:27;8.23;;;5.47;;
79130;SDS011;72396;45.194;9.142;2024-02-26T11:16:55;9.60;;;5.30;;
79130;SDS011;72396;45.194;9.142;2024-02-26T11:19:21;8.20;;;4.95;;
79130;SDS011;72396;45.194;9.142;2024-02-26T11:21:47;10.25;;;5.68;;
79130;SDS011;72396;45.194;9.142;2024-02-26T11:24:12;6.70;;;4.53;;
79130;SDS011;72396;45.194;9.142;2024-02-26T11:26:44;9.75;;;4.93;;
79130;SDS011;72396;45.194;9.142;2024-02-26T11:29:17;7.53;;;4.82;;
79130;SDS011;72396;45.194;9.142;2024-02-26T11:31:46;8.05;;;4.30;;
79130;SDS011;72396;45.194;9.142;2024-02-26T11:34:12;7.75;;;4.63;;
79130;SDS011;72396;45.194;9.142;2024-02-26T11:36:38;8.07;;;4.38;;
79130;SDS011;72396;45.194;9.142;2024-02-26T11:39:04;7.97;;;4.43;;
79130;SDS011;72396;45.194;9.142;2024-02-26T11:41:30;8.13;;;4.47;;
79130;SDS011;72396;45.194;9.142;2024-02-26T11:44:00;6.53;;;4.25;;
79130;SDS011;72396;45.194;9.142;2024-02-26T11:46:42;7.13;;;3.55;;
79130;SDS011;72396;45.194;9.142;2024-02-26T11:51:52;8.30;;;3.90;;
79130;SDS011;72396;45.194;9.142;2024-02-26T11:54:38;6.78;;;3.90;;
79130;SDS011;72396;45.194;9.142;2024-02-26T12:00:12;5.00;;;3.10;;
79130;SDS011;72396;45.194;9.142;2024-02-26T12:02:45;7.20;;;2.80;;
79130;SDS011;72396;45.194;9.142;2024-02-26T12:05:16;6.03;;;3.55;;
79130;SDS011;72396;45.194;9.142;2024-02-26T12:07:47;7.10;;;3.25;;
79130;SDS011;72396;45.194;9.142;2024-02-26T12:10:15;6.28;;;3.03;;
79130;SDS011;72396;45.194;9.142;2024-02-26T12:15:23;5.68;;;3.00;;
79130;SDS011;72396;45.194;9.142;2024-02-26T12:17:48;6.32;;;3.45;;
79130;SDS011;72396;45.194;9.142;2024-02-26T12:20:15;6.65;;;3.92;;
79130;SDS011;72396;45.194;9.142;2024-02-26T12:22:43;6.70;;;2.80;;
79130;SDS011;72396;45.194;9.142;2024-02-26T12:25:11;6.38;;;3.28;;
79130;SDS011;72396;45.194;9.142;2024-02-26T12:27:36;4.43;;;2.92;;
79130;SDS011;72396;45.194;9.142;2024-02-26T12:30:02;6.30;;;2.60;;
79130;SDS011;72396;45.194;9.142;2024-02-26T12:32:28;5.65;;;3.17;;
79130;SDS011;72396;45.194;9.142;2024-02-26T12:34:54;4.45;;;3.00;;
79130;SDS011;72396;45.194;9.142;2024-02-26T12:37:19;5.55;;;2.95;;
79130;SDS011;72396;45.194;9.142;2024-02-26T12:39:45;7.00;;;2.78;;
79130;SDS011;72396;45.194;9.142;2024-02-26T12:42:11;5.40;;;2.55;;
79130;SDS011;72396;45.194;9.142;2024-02-26T12:44:37;4.35;;;2.42;;
79130;SDS011;72396;45.194;9.142;2024-02-26T12:47:02;4.32;;;2.55;;
79130;SDS011;72396;45.194;9.142;2024-02-26T12:49:29;4.70;;;2.50;;
79130;SDS011;72396;45.194;9.142;2024-02-26T12:51:54;5.30;;;2.50;;
79130;SDS011;72396;45.194;9.142;2024-02-26T12:54:26;6.35;;;2.78;;
79130;SDS011;72396;45.194;9.142;2024-02-26T12:56:56;5.05;;;2.40;;
79130;SDS011;72396;45.194;9.142;2024-02-26T12:59:23;6.22;;;3.03;;
79130;SDS011;72396;45.194;9.142;2024-02-26T13:01:48;4.55;;;2.70;;
79130;SDS011;72396;45.194;9.142;2024-02-26T13:04:14;4.68;;;2.42;;
79130;SDS011;72396;45.194;9.142;2024-02-26T13:06:40;4.82;;;2.45;;
79130;SDS011;72396;45.194;9.142;2024-02-26T13:09:05;4.70;;;2.15;;
79130;SDS011;72396;45.194;9.142;2024-02-26T13:11:31;5.47;;;2.63;;
79130;SDS011;72396;45.194;9.142;2024-02-26T13:13:57;4.45;;;1.85;;
79130;SDS011;72396;45.194;9.142;2024-02-26T13:16:23;4.63;;;2.20;;
79130;SDS011;72396;45.194;9.142;2024-02-26T13:18:50;3.20;;;1.90;;
79130;SDS011;72396;45.194;9.142;2024-02-26T13:21:16;6.22;;;1.85;;
79130;SDS011;72396;45.194;9.142;2024-02-26T13:23:43;4.43;;;2.03;;
79130;SDS011;72396;45.194;9.142;2024-02-26T13:26:13;2.88;;;1.50;;
79130;SDS011;72396;45.194;9.142;2024-02-26T13:28:39;5.53;;;1.67;;
79130;SDS011;72396;45.194;9.142;2024-02-26T13:31:05;4.43;;;1.95;;
79130;SDS011;72396;45.194;9.142;2024-02-26T13:33:32;4.15;;;1.65;;
79130;SDS011;72396;45.194;9.142;2024-02-26T13:35:58;3.40;;;1.50;;
79130;SDS011;72396;45.194;9.142;2024-02-26T13:38:24;2.92;;;1.58;;
79130;SDS011;72396;45.194;9.142;2024-02-26T13:40:50;3.67;;;1.63;;
79130;SDS011;72396;45.194;9.142;2024-02-26T13:43:16;2.63;;;1.38;;
79130;SDS011;72396;45.194;9.142;2024-02-26T13:45:42;3.70;;;1.48;;
79130;SDS011;72396;45.194;9.142;2024-02-26T13:48:09;2.78;;;1.40;;
79130;SDS011;72396;45.194;9.142;2024-02-26T13:50:38;3.28;;;1.88;;
79130;SDS011;72396;45.194;9.142;2024-02-26T13:53:04;3.35;;;1.30;;
79130;SDS011;72396;45.194;9.142;2024-02-26T13:55:30;2.53;;;1.33;;
79130;SDS011;72396;45.194;9.142;2024-02-26T13:57:57;3.28;;;1.30;;
79130;SDS011;72396;45.194;9.142;2024-02-26T14:00:23;3.20;;;1.30;;
79130;SDS011;72396;45.194;9.142;2024-02-26T14:02:50;3.10;;;1.30;;
79130;SDS011;72396;45.194;9.142;2024-02-26T14:05:15;4.57;;;1.52;;
79130;SDS011;72396;45.194;9.142;2024-02-26T14:07:41;3.65;;;1.30;;
79130;SDS011;72396;45.194;9.142;2024-02-26T14:10:07;3.85;;;1.63;;
79130;SDS011;72396;45.194;9.142;2024-02-26T14:12:35;3.47;;;1.50;;
79130;SDS011;72396;45.194;9.142;2024-02-26T14:15:00;3.05;;;1.38;;
79130;SDS011;72396;45.194;9.142;2024-02-26T14:17:29;3.15;;;1.35;;
79130;SDS011;72396;45.194;9.142;2024-02-26T14:19:55;3.15;;;1.38;;
79130;SDS011;72396;45.194;9.142;2024-02-26T14:22:20;3.63;;;1.70;;
79130;SDS011;72396;45.194;9.142;2024-02-26T14:24:45;2.50;;;1.33;;
79130;SDS011;72396;45.194;9.142;2024-02-26T14:27:12;3.00;;;1.45;;
79130;SDS011;72396;45.194;9.142;2024-02-26T14:29:42;2.92;;;1.40;;
79130;SDS011;72396;45.194;9.142;2024-02-26T14:32:08;3.17;;;1.25;;
79130;SDS011;72396;45.194;9.142;2024-02-26T14:34:37;3.72;;;1.50;;
79130;SDS011;72396;45.194;9.142;2024-02-26T14:37:02;4.63;;;1.50;;
79130;SDS011;72396;45.194;9.142;2024-02-26T14:39:28;2.33;;;1.23;;
79130;SDS011;72396;45.194;9.142;2024-02-26T14:41:54;3.40;;;1.40;;
79130;SDS011;72396;45.194;9.142;2024-02-26T14:44:19;3.00;;;1.55;;